Flight Track Log - Related Links

Times and Time Zones

All times are in EDT time to prevent confusion due to time zone crossing. See the N983CA flight status page for this flight to view local times or setup timezone preferences in your user account.

Time Position Orientation Groundspeed Altitude Reporting Facility
EDT Latitude Longitude Course Direction KTS MPH feet Rate Location/Type
Tue 09:23:43 PM 39.8000 -104.6667 277° West 194 223 7,000  Level Denver TRACON
Tue 09:24:31 PM 39.7500 -104.6833 194° South 230 265 8,900 2,345 Climbing Denver TRACON
Tue 09:25:10 PM 39.7111 -104.7000 198° South 241 277 10,400 1,604 Climbing Denver Center
Tue 09:26:00 PM 39.8947 -105.2136 276° West  Level FlightAware Approximate
Tue 09:26:12 PM 39.6872 -104.7861 250° West 304 350 11,600  Level Denver Center
Tue 09:27:00 PM 39.9161 -105.3477 288° West  Level FlightAware Approximate
Tue 09:27:14 PM 39.7239 -104.8983 293° West 334 384 13,700  Level Denver Center
Tue 09:28:00 PM 39.9289 -105.4844 277° West  Level FlightAware Approximate
Tue 09:28:15 PM 39.7611 -105.0153 293° West 327 376 15,900  Level Denver Center
Tue 09:29:17 PM 39.7969 -105.1253 293° West 332 382 17,800 1,756 Climbing Denver Center
Tue 09:30:18 PM 39.8317 -105.2347 292° West 327 376 19,500 1,512 Climbing Denver Center
Tue 09:31:20 PM 39.8539 -105.3619 283° West 333 383 20,900 1,366 Climbing Denver Center
Tue 09:32:21 PM 39.8692 -105.4806 280° West 330 380 22,300 1,415 Climbing Denver Center
Tue 09:33:23 PM 39.8875 -105.5986 281° West 333 383 23,800 1,355 Climbing Denver Center
Tue 09:34:25 PM 39.9053 -105.7214 281° West 319 367 25,100 1,268 Climbing Denver Center
Tue 09:35:26 PM 39.9225 -105.8372 281° West 318 366 26,400 976 Climbing Denver Center
Tue 09:36:28 PM 39.9386 -105.9561 280° West 329 379 27,100 732 Climbing Denver Center
Tue 09:37:29 PM 39.9578 -106.0758 282° West 335 386 27,900 878 Climbing Denver Center
Tue 09:38:31 PM 39.9753 -106.1978 281° West 338 389 28,900 774 Climbing Denver Center
Tue 09:39:33 PM 39.9919 -106.3200 280° West 339 390 29,500 780 Climbing Denver Center
Tue 09:40:34 PM 40.0106 -106.4392 282° West 335 386 30,500 976 Climbing Denver Center
Tue 09:41:36 PM 40.0292 -106.5642 281° West 330 380 31,500 726 Climbing Denver Center
Tue 09:42:38 PM 40.0453 -106.6744 281° West 326 375 32,000 244 Climbing Denver Center
Tue 09:43:39 PM 40.0633 -106.8075 280° West 330 380 32,000  Level Denver Center
Tue 09:44:41 PM 40.0808 -106.9272 281° West 345 397 32,000  Level Denver Center
Tue 09:45:43 PM 40.0989 -107.0683 280° West 352 405 32,000  Level Denver Center
Tue 09:46:44 PM 40.1167 -107.1911 281° West 358 412 32,000  Level Denver Center
Tue 09:47:46 PM 40.1367 -107.3339 280° West 359 413 32,000  Level Denver Center
Tue 09:48:48 PM 40.1531 -107.4578 280° West 361 415 32,000  Level Denver Center
Tue 09:49:49 PM 40.1683 -107.5822 279° West 363 418 32,000  Level Denver Center
Tue 09:50:51 PM 40.1894 -107.7278 281° West 365 420 32,000  Level Denver Center
Tue 09:51:52 PM 40.2056 -107.8525 280° West 365 420 32,000  Level Denver Center
Tue 09:52:54 PM 40.2244 -108.0003 280° West 367 422 32,000  Level Denver Center
Tue 09:53:56 PM 40.2414 -108.1272 280° West 370 426 32,000  Level Denver Center
Tue 09:54:57 PM 40.2606 -108.2764 280° West 373 429 32,000  Level Denver Center
Tue 09:55:59 PM 40.2767 -108.4056 279° West 376 433 32,000  Level Denver Center
Tue 09:57:01 PM 40.2936 -108.5350 280° West 377 434 32,000  Level Denver Center
Tue 09:58:02 PM 40.3117 -108.6872 279° West 380 437 32,000  Level Denver Center
Tue 09:58:26 PM 40.3172 -108.7369 278° West 380 437 32,000  Level Salt Lake Center
Tue 09:59:27 PM 40.3358 -108.8858 279° West 386 444 32,000  Level Salt Lake Center
Tue 10:00:05 PM 40.3461 -108.9753 279° West 388 447 32,000  Level Denver Center
Tue 10:01:07 PM 40.3628 -109.1111 279° West 394 453 32,000  Level Denver Center
Tue 10:01:30 PM 40.3711 -109.1783 279° West 393 452 32,000  Level Salt Lake Center
Tue 10:02:08 PM 40.3819 -109.2689 279° West 395 455 32,000  Level Denver Center
Tue 10:03:10 PM 40.3978 -109.4022 279° West 391 450 32,000  Level Denver Center
Tue 10:03:32 PM 40.4061 -109.4711 279° West 393 452 32,000  Level Salt Lake Center
Tue 10:04:34 PM 40.4219 -109.6092 279° West 398 458 32,000  Level Salt Lake Center
Tue 10:05:35 PM 40.4375 -109.7478 278° West 401 461 32,000  Level Salt Lake Center
Tue 10:06:36 PM 40.4558 -109.9106 278° West 404 465 32,000  Level Salt Lake Center
Tue 10:07:37 PM 40.4711 -110.0519 278° West 409 471 32,000  Level Salt Lake Center
Tue 10:08:39 PM 40.4869 -110.1933 278° West 410 472 32,000  Level Salt Lake Center
Tue 10:09:40 PM 40.5061 -110.3597 279° West 412 474 32,000  Level Salt Lake Center
Tue 10:10:41 PM 40.5206 -110.5019 278° West 411 473 32,000  Level Salt Lake Center
Tue 10:11:43 PM 40.5383 -110.6625 278° West 418 481 32,000  Level Salt Lake Center
Tue 10:12:44 PM 40.5547 -110.8125 278° West 416 479 32,000  Level Salt Lake Center
Tue 10:13:45 PM 40.5697 -110.9628 278° West 416 479 32,000  Level Salt Lake Center
Tue 10:14:46 PM 40.5858 -111.1139 278° West 418 481 32,000  Level Salt Lake Center
Tue 10:15:48 PM 40.6017 -111.2642 278° West 416 479 32,000  Level Salt Lake Center
Tue 10:16:49 PM 40.6175 -111.4153 278° West 418 481 32,000  Level Salt Lake Center
Tue 10:17:50 PM 40.6311 -111.5653 277° West 411 473 32,000  Level Salt Lake Center
Tue 10:18:52 PM 40.6492 -111.7469 278° West 415 478 32,000  Level Salt Lake Center
Tue 10:19:53 PM 40.6633 -111.8983 277° West 413 475 32,000  Level Salt Lake Center
Tue 10:20:54 PM 40.6794 -112.0503 278° West 415 478 32,000  Level Salt Lake Center
Tue 10:21:55 PM 40.6992 -112.2008 280° West 416 479 32,000  Level Salt Lake Center
Tue 10:22:57 PM 40.7186 -112.3525 280° West 417 480 32,000  Level Salt Lake Center
Tue 10:23:58 PM 40.7378 -112.5033 280° West 416 479 32,000  Level Salt Lake Center
Tue 10:24:59 PM 40.7575 -112.6569 280° West 423 487 32,000  Level Salt Lake Center
Tue 10:26:00 PM 40.7758 -112.8086 279° West 423 487 32,000  Level Salt Lake Center
Tue 10:27:02 PM 40.7950 -112.9611 279° West 422 486 32,000  Level Salt Lake Center
Tue 10:28:03 PM 40.8139 -113.1133 279° West 423 487 32,000  Level Salt Lake Center
Tue 10:29:04 PM 40.8322 -113.2669 279° West 424 488 32,000  Level Salt Lake Center
Tue 10:30:05 PM 40.8500 -113.4203 279° West 423 487 32,000  Level Salt Lake Center
Tue 10:31:07 PM 40.8717 -113.6047 279° West 424 488 32,000  Level Salt Lake Center
Tue 10:32:08 PM 40.8892 -113.7583 279° West 424 488 32,000  Level Salt Lake Center
Tue 10:33:09 PM 40.9058 -113.9119 278° West 424 488 32,000  Level Salt Lake Center
Tue 10:34:11 PM 40.9239 -114.0675 279° West 427 491 32,000  Level Salt Lake Center
Tue 10:35:12 PM 40.9400 -114.2225 278° West 427 491 32,000  Level Salt Lake Center
Tue 10:36:13 PM 40.9578 -114.3761 279° West 425 489 32,000  Level Salt Lake Center
Tue 10:37:15 PM 40.9767 -114.5492 278° West 427 491 32,000  Level Salt Lake Center
Tue 10:38:16 PM 40.9919 -114.6972 278° West 426 490 32,000  Level Salt Lake Center
Tue 10:39:17 PM 41.0069 -114.8458 278° West 426 490 32,000  Level Salt Lake Center
Tue 10:40:19 PM 41.0250 -115.0203 278° West 427 491 32,000  Level Salt Lake Center
Tue 10:41:20 PM 41.0408 -115.1706 278° West 429 494 32,000  Level Salt Lake Center
Tue 10:42:21 PM 41.0597 -115.3475 278° West 432 497 32,000  Level Salt Lake Center
Tue 10:43:23 PM 41.0756 -115.5003 278° West 434 499 32,000  Level Salt Lake Center
Tue 10:44:24 PM 41.0894 -115.6506 277° West 434 499 32,000  Level Salt Lake Center
Tue 10:45:25 PM 41.1078 -115.8264 278° West 432 497 32,000  Level Salt Lake Center
Tue 10:46:27 PM 41.1214 -115.9756 277° West 429 494 32,000  Level Salt Lake Center
Tue 10:47:28 PM 41.1383 -116.1486 277° West 426 490 32,000  Level Salt Lake Center
Tue 10:48:29 PM 41.1528 -116.2994 277° West 428 493 32,000  Level Salt Lake Center
Tue 10:49:30 PM 41.1669 -116.4483 277° West 428 493 32,000  Level Salt Lake Center
Tue 10:50:32 PM 41.1819 -116.6208 277° West 424 488 32,000  Level Salt Lake Center
Tue 10:51:33 PM 41.1944 -116.7683 276° West 422 486 32,000  Level Salt Lake Center
Tue 10:52:34 PM 41.2100 -116.9394 277° West 420 483 32,000  Level Salt Lake Center
Tue 10:53:35 PM 41.2228 -117.0872 277° West 421 484 32,000  Level Salt Lake Center
Tue 10:54:37 PM 41.2350 -117.2347 276° West 422 486 32,000  Level Salt Lake Center
Tue 10:55:38 PM 41.2492 -117.4067 276° West 422 486 32,000  Level Salt Lake Center
Tue 10:56:39 PM 41.2614 -117.5553 276° West 423 487 32,000  Level Salt Lake Center
Tue 10:57:41 PM 41.2753 -117.7281 276° West 422 486 32,000  Level Salt Lake Center
Tue 10:58:42 PM 41.2864 -117.8769 276° West 423 487 32,000  Level Salt Lake Center
Tue 10:59:43 PM 41.2989 -118.0244 276° West 422 486 32,000  Level Salt Lake Center
Tue 11:00:44 PM 41.3111 -118.1986 275° West 423 487 32,000  Level Salt Lake Center
Tue 11:01:46 PM 41.3231 -118.3478 276° West 424 488 32,000  Level Salt Lake Center
Tue 11:02:47 PM 41.3331 -118.4981 275° West 425 489 32,000  Level Salt Lake Center
Tue 11:03:48 PM 41.3464 -118.6697 276° West 421 484 32,000  Level Salt Lake Center
Tue 11:04:49 PM 41.3569 -118.8181 275° West 420 483 32,000  Level Salt Lake Center
Tue 11:05:51 PM 41.3689 -118.9950 275° West 426 490 32,000  Level Salt Lake Center
Tue 11:06:52 PM 41.3789 -119.1467 275° West 428 493 32,000  Level Salt Lake Center
Tue 11:07:53 PM 41.3889 -119.2978 275° West 429 494 32,000  Level Salt Lake Center
Tue 11:08:54 PM 41.4017 -119.4742 276° West 427 491 32,000  Level Salt Lake Center
Tue 11:09:55 PM 41.4086 -119.6108 274° West 430 495 32,000  Level Salt Lake Center
Tue 11:10:56 PM 41.4214 -119.8011 275° West 431 496 32,000  Level Salt Lake Center
Tue 11:11:58 PM 41.4314 -119.9583 275° West 429 494 32,000  Level Salt Lake Center
Tue 11:13:00 PM 41.4614 -120.0883 287° West 418 481 32,000  Level Seattle Center
Tue 11:14:01 PM 41.5136 -120.2208 298° West 406 467 32,000  Level Seattle Center
Tue 11:15:01 PM 41.5744 -120.3822 297° West 406 467 32,000  Level Seattle Center
Tue 11:16:02 PM 41.6283 -120.5150 299° West 406 467 32,000  Level Seattle Center
Tue 11:17:03 PM 41.6781 -120.6500 296° West 404 465 32,000  Level Seattle Center
Tue 11:18:04 PM 41.7267 -120.7833 296° West 401 461 32,000  Level Seattle Center
Tue 11:19:04 PM 41.7756 -120.9150 297° West 399 459 32,000  Level Seattle Center
Tue 11:20:05 PM 41.8222 -121.0472 295° West 394 453 32,000 -934 Level Seattle Center
Tue 11:21:06 PM 41.8692 -121.1781 296° West 390 449 30,100 -2,479 Descending Seattle Center
Tue 11:22:06 PM 41.9133 -121.3033 295° West 379 436 27,000 -2,727 Descending Seattle Center
Tue 11:23:07 PM 41.9572 -121.4286 295° West 371 427 24,600 -2,508 Descending Seattle Center
Tue 11:24:08 PM 41.9992 -121.5528 294° West 369 425 21,900 -2,529 Descending Seattle Center
Tue 11:25:08 PM 42.0431 -121.6792 295° West 374 430 19,500 -2,033 Descending Seattle Center
Tue 11:26:09 PM 42.0836 -121.8003 294° West 365 420 17,800 -1,339 Descending Seattle Center
Tue 11:27:09 PM 42.1219 -121.9133 295° West 347 399 16,800 -1,041 Descending Seattle Center
Tue 11:28:10 PM 42.1603 -122.0233 295° West 339 390 15,700 -1,279 Descending Seattle Center
Tue 11:29:11 PM 42.2072 -122.1603 295° West 341 392 14,200 -1,488 Descending Seattle Center
Tue 11:30:11 PM 42.2442 -122.2711 294° West 327 376 12,700 -1,240 Descending Seattle Center
Tue 11:31:12 PM 42.2789 -122.3742 295° West 300 345 11,700 -1,377 Descending Seattle Center
Tue 11:32:13 PM 42.3039 -122.4703 289° West 272 313 9,900 -1,736 Descending Seattle Center
Tue 11:33:13 PM 42.3222 -122.5708 284° West 275 316 8,200 -1,388 Descending Seattle Center
Tue 11:34:14 PM 42.3392 -122.6661 284° West 263 303 7,100 -1,082 Descending Seattle Center

Login

Don't have an account? Register now (free) for customized features, flight alerts, and more!